createdAt,value
2019-05-07T00:01:46.550Z,13.30
2019-05-07T00:04:15.289Z,14.87
2019-05-07T00:06:44.180Z,12.93
2019-05-07T00:09:14.733Z,11.53
2019-05-07T00:11:43.672Z,15.90
2019-05-07T00:14:12.719Z,9.78
2019-05-07T00:16:43.078Z,12.53
2019-05-07T00:19:13.035Z,11.30
2019-05-07T00:21:42.526Z,14.43
2019-05-07T00:24:13.175Z,13.83
2019-05-07T00:26:43.069Z,11.80
2019-05-07T00:29:12.939Z,14.70
2019-05-07T00:31:42.234Z,15.63
2019-05-07T00:34:12.627Z,14.33
2019-05-07T00:36:47.290Z,14.07
2019-05-07T00:39:35.138Z,16.77
2019-05-07T00:42:13.935Z,16.10
2019-05-07T00:45:16.902Z,15.07
2019-05-07T00:47:35.305Z,16.93
2019-05-07T00:50:09.105Z,16.67
2019-05-07T00:52:37.916Z,18.80
2019-05-07T00:55:06.781Z,18.47
2019-05-07T00:57:35.495Z,18.90
2019-05-07T01:00:05.390Z,19.23
2019-05-07T01:02:34.407Z,21.30
2019-05-07T01:05:03.746Z,19.07
2019-05-07T01:07:32.637Z,19.13
2019-05-07T01:10:02.199Z,19.30
2019-05-07T01:12:32.857Z,21.27
2019-05-07T01:15:02.883Z,22.33
2019-05-07T01:17:33.555Z,20.87
2019-05-07T01:20:03.029Z,20.70
2019-05-07T01:22:33.044Z,20.55
2019-05-07T01:25:02.401Z,20.33
2019-05-07T01:27:32.167Z,18.30
2019-05-07T01:30:02.511Z,18.33
2019-05-07T01:32:56.923Z,19.60
2019-05-07T01:35:45.176Z,20.77
2019-05-07T01:38:15.325Z,21.62
2019-05-07T01:40:44.069Z,23.05
2019-05-07T01:43:13.102Z,20.50
2019-05-07T01:45:49.557Z,20.30
2019-05-07T01:48:16.956Z,20.33
2019-05-07T01:50:45.724Z,22.37
2019-05-07T01:53:14.473Z,20.93
2019-05-07T01:55:43.408Z,20.90
2019-05-07T01:58:12.505Z,20.00
2019-05-07T02:00:42.405Z,20.02
2019-05-07T02:03:23.058Z,21.57
2019-05-07T02:05:59.104Z,22.60
2019-05-07T02:08:45.748Z,23.63
2019-05-07T02:11:16.561Z,19.80
2019-05-07T02:13:45.708Z,26.07
2019-05-07T02:16:14.517Z,21.70
2019-05-07T02:18:43.231Z,25.53
2019-05-07T02:21:12.897Z,24.82
2019-05-07T02:23:42.550Z,27.10
2019-05-07T02:26:13.395Z,25.27
2019-05-07T02:28:42.641Z,28.27
2019-05-07T02:31:14.805Z,26.93
2019-05-07T02:33:43.333Z,29.37
2019-05-07T02:36:14.253Z,28.27
2019-05-07T02:38:48.654Z,28.63
2019-05-07T02:41:23.282Z,26.57
2019-05-07T02:43:53.686Z,29.02
2019-05-07T02:46:35.159Z,29.23
2019-05-07T02:49:07.280Z,28.60
2019-05-07T02:51:43.613Z,30.43
2019-05-07T02:54:24.446Z,31.57
2019-05-07T02:56:53.540Z,34.60
2019-05-07T02:59:23.301Z,31.93
2019-05-07T03:01:53.805Z,28.13
2019-05-07T03:04:25.087Z,27.23
2019-05-07T03:06:54.290Z,27.13
2019-05-07T03:09:23.422Z,25.50
2019-05-07T03:11:52.979Z,24.40
2019-05-07T03:14:23.320Z,22.27
2019-05-07T03:16:53.554Z,25.63
2019-05-07T03:19:24.153Z,22.67
2019-05-07T03:21:54.314Z,21.93
2019-05-07T03:24:43.902Z,21.03
2019-05-07T03:27:14.126Z,20.80
2019-05-07T03:29:46.145Z,21.67
2019-05-07T03:32:38.174Z,22.77
2019-05-07T03:35:27.335Z,21.57
2019-05-07T03:37:54.788Z,18.83
2019-05-07T03:40:23.729Z,21.47
2019-05-07T03:42:53.430Z,18.37
2019-05-07T03:45:43.308Z,19.07
2019-05-07T03:48:16.362Z,21.23
2019-05-07T03:50:45.476Z,20.27
2019-05-07T03:53:14.671Z,19.70
2019-05-07T03:55:44.553Z,19.67
2019-05-07T03:58:14.690Z,19.47
2019-05-07T04:00:44.665Z,21.57
2019-05-07T04:03:18.742Z,22.07
2019-05-07T04:05:44.201Z,22.90
2019-05-07T04:08:13.541Z,22.53
2019-05-07T04:10:44.350Z,24.60
2019-05-07T04:13:13.836Z,24.27
2019-05-07T04:15:43.869Z,24.20
2019-05-07T04:18:13.532Z,23.33
2019-05-07T04:20:43.469Z,26.70
2019-05-07T04:23:13.894Z,26.13
2019-05-07T04:25:53.016Z,22.43
2019-05-07T04:28:46.612Z,24.97
2019-05-07T04:31:15.309Z,27.77
2019-05-07T04:33:44.291Z,26.27
2019-05-07T04:36:34.112Z,26.13
2019-05-07T04:39:04.983Z,24.00
2019-05-07T04:41:33.745Z,26.82
2019-05-07T04:44:03.638Z,30.47
2019-05-07T04:46:53.318Z,24.57
2019-05-07T04:49:23.857Z,25.53
2019-05-07T04:52:11.350Z,23.93
2019-05-07T04:54:38.105Z,27.93
2019-05-07T04:57:12.744Z,23.83
2019-05-07T04:59:42.816Z,26.10
2019-05-07T05:02:17.647Z,25.13
2019-05-07T05:04:46.445Z,23.30
2019-05-07T05:07:15.246Z,22.73
2019-05-07T05:09:44.056Z,22.80
2019-05-07T05:12:13.236Z,24.30
2019-05-07T05:14:43.502Z,26.57
2019-05-07T05:17:13.050Z,23.10
2019-05-07T05:19:44.440Z,22.80
2019-05-07T05:22:22.689Z,28.57
2019-05-07T05:25:09.360Z,21.80
2019-05-07T05:27:38.164Z,26.48
2019-05-07T05:30:09.301Z,22.73
2019-05-07T05:32:38.024Z,24.57
2019-05-07T05:35:08.465Z,20.97
2019-05-07T05:37:37.548Z,24.63
2019-05-07T05:40:08.919Z,23.13
2019-05-07T05:42:43.448Z,24.67
2019-05-07T05:45:30.285Z,24.93
2019-05-07T05:48:04.543Z,25.53
2019-05-07T05:50:33.107Z,24.20
2019-05-07T05:53:17.845Z,19.85
2019-05-07T05:55:47.049Z,22.57
2019-05-07T05:58:26.746Z,23.93
2019-05-07T06:01:08.869Z,20.70
2019-05-07T06:03:55.233Z,21.13
2019-05-07T06:06:32.740Z,16.60
2019-05-07T06:09:13.558Z,16.57
2019-05-07T06:11:57.655Z,14.73
2019-05-07T06:14:34.466Z,14.50
2019-05-07T06:17:25.752Z,17.80
2019-05-07T06:20:03.868Z,14.33
2019-05-07T06:22:52.756Z,15.60
2019-05-07T06:25:24.824Z,11.50
2019-05-07T06:27:53.005Z,13.40
2019-05-07T06:30:22.725Z,12.73
2019-05-07T06:32:52.365Z,13.83
2019-05-07T06:35:22.961Z,13.03
2019-05-07T06:37:52.257Z,14.43
2019-05-07T06:40:32.176Z,13.47
2019-05-07T06:43:21.603Z,9.93
2019-05-07T06:45:52.386Z,11.53
2019-05-07T06:48:34.780Z,11.67
2019-05-07T06:50:57.837Z,9.60
2019-05-07T06:53:28.852Z,12.63
2019-05-07T06:55:58.888Z,11.57
2019-05-07T06:58:34.417Z,12.83
2019-05-07T07:01:14.656Z,12.03
2019-05-07T07:04:02.841Z,14.30
2019-05-07T07:06:37.858Z,13.33
2019-05-07T07:09:25.860Z,12.80
2019-05-07T07:11:58.444Z,13.10
2019-05-07T07:14:27.234Z,9.37
2019-05-07T07:16:56.015Z,9.23
2019-05-07T07:19:24.762Z,9.20
2019-05-07T07:21:53.592Z,10.67
2019-05-07T07:24:22.400Z,7.10
2019-05-07T07:26:52.835Z,8.93
2019-05-07T07:29:24.239Z,9.83
2019-05-07T07:31:56.697Z,12.73
2019-05-07T07:34:26.907Z,10.80
2019-05-07T07:37:06.040Z,10.53
2019-05-07T07:39:32.569Z,9.03
2019-05-07T07:42:03.231Z,9.53
2019-05-07T07:44:32.983Z,11.47
2019-05-07T07:47:02.482Z,14.23
2019-05-07T07:49:32.967Z,8.87
2019-05-07T07:52:03.137Z,13.00
2019-05-07T07:54:32.289Z,8.20
2019-05-07T07:57:12.479Z,8.90
2019-05-07T07:59:53.427Z,9.70
2019-05-07T08:02:33.171Z,9.93
2019-05-07T08:05:02.169Z,10.07
2019-05-07T08:07:33.097Z,9.40
2019-05-07T08:10:02.631Z,7.20
2019-05-07T08:12:32.488Z,6.57
2019-05-07T08:15:14.590Z,7.77
2019-05-07T08:26:10.185Z,7.95
2019-05-07T08:28:38.925Z,8.13
2019-05-07T08:31:33.434Z,9.60
2019-05-07T08:34:14.267Z,10.37
2019-05-07T08:36:43.137Z,7.47
2019-05-07T08:39:12.977Z,7.97
2019-05-07T08:41:42.293Z,6.53
2019-05-07T08:44:18.359Z,10.30
2019-05-07T08:46:54.676Z,9.87
2019-05-07T08:49:35.892Z,8.83
2019-05-07T08:52:03.060Z,7.92
2019-05-07T08:54:32.130Z,5.67
2019-05-07T08:57:02.903Z,8.90
2019-05-07T08:59:32.925Z,7.43
2019-05-07T09:02:03.044Z,8.70
2019-05-07T09:04:32.886Z,11.33
2019-05-07T09:07:02.844Z,7.80
2019-05-07T09:09:32.668Z,7.57
2019-05-07T09:12:03.018Z,9.67
2019-05-07T09:14:32.673Z,8.87
2019-05-07T09:17:03.301Z,6.77
2019-05-07T09:19:46.272Z,10.60
2019-05-07T09:22:03.875Z,8.07
2019-05-07T09:24:33.488Z,7.00
2019-05-07T09:27:13.828Z,5.57
2019-05-07T09:29:51.947Z,6.10
2019-05-07T09:32:28.984Z,8.33
2019-05-07T09:34:58.661Z,7.10
2019-05-07T09:37:28.102Z,6.73
2019-05-07T09:39:56.918Z,6.37
2019-05-07T09:42:25.892Z,6.70
2019-05-07T09:44:54.640Z,8.15
2019-05-07T09:47:23.628Z,5.30
2019-05-07T09:50:03.932Z,7.70
2019-05-07T09:52:23.128Z,9.50
2019-05-07T09:54:52.497Z,7.17
2019-05-07T09:57:28.329Z,7.28
2019-05-07T09:59:53.040Z,9.70
2019-05-07T10:02:22.885Z,7.50
2019-05-07T10:04:52.832Z,10.80
2019-05-07T10:07:22.477Z,11.67
2019-05-07T10:09:52.312Z,13.90
2019-05-07T10:12:32.823Z,12.80
2019-05-07T10:15:03.075Z,14.05
2019-05-07T10:17:39.532Z,13.10
2019-05-07T10:20:21.114Z,12.10
2019-05-07T10:22:42.713Z,12.47
2019-05-07T10:25:12.219Z,10.17
2019-05-07T10:27:41.914Z,10.37
2019-05-07T10:30:12.941Z,10.53
2019-05-07T10:32:42.699Z,8.43
2019-05-07T10:35:13.332Z,11.87
2019-05-07T10:37:42.499Z,9.90
2019-05-07T10:40:13.586Z,9.03
2019-05-07T10:42:45.773Z,7.13
2019-05-07T10:45:34.121Z,10.75
2019-05-07T10:48:13.593Z,10.17
2019-05-07T10:50:44.220Z,8.77
2019-05-07T10:53:13.289Z,12.33
2019-05-07T10:55:45.474Z,9.87
2019-05-07T10:58:12.605Z,8.80
2019-05-07T11:00:42.175Z,9.13
2019-05-07T11:03:12.664Z,7.27
2019-05-07T11:05:42.072Z,13.13
2019-05-07T11:08:11.011Z,7.37
2019-05-07T11:10:41.897Z,6.87
2019-05-07T11:13:12.639Z,6.50
2019-05-07T11:15:43.144Z,8.73
2019-05-07T11:18:16.858Z,7.85
2019-05-07T11:20:50.275Z,6.57
2019-05-07T11:23:16.461Z,8.57
2019-05-07T11:25:45.363Z,9.47
2019-05-07T11:28:14.145Z,7.87
2019-05-07T11:30:43.654Z,7.73
2019-05-07T11:33:12.984Z,6.10
2019-05-07T11:35:42.303Z,7.83
2019-05-07T11:38:20.527Z,7.60
2019-05-07T11:40:42.705Z,8.40
2019-05-07T11:43:27.864Z,8.98
2019-05-07T11:46:13.388Z,8.33
2019-05-07T11:48:51.383Z,8.30
2019-05-07T11:51:26.237Z,7.17
2019-05-07T11:54:09.747Z,7.43
2019-05-07T11:56:38.808Z,6.63
2019-05-07T11:59:07.732Z,8.13
2019-05-07T12:01:46.697Z,9.13
2019-05-07T12:04:08.558Z,7.03
2019-05-07T12:06:37.398Z,7.57
2019-05-07T12:09:07.994Z,9.30
2019-05-07T12:11:36.765Z,8.27
2019-05-07T12:14:06.077Z,7.87
2019-05-07T12:16:34.881Z,8.60
2019-05-07T12:19:03.729Z,10.03
2019-05-07T12:21:32.856Z,7.63
2019-05-07T12:24:02.241Z,9.47
2019-05-07T12:26:33.254Z,6.43
2019-05-07T12:29:01.993Z,7.28
2019-05-07T12:31:52.018Z,8.43
2019-05-07T12:34:27.322Z,9.03
2019-05-07T12:36:56.074Z,9.08
2019-05-07T12:39:24.896Z,8.73
2019-05-07T12:41:53.709Z,7.77
2019-05-07T12:44:22.550Z,9.93
2019-05-07T12:46:52.436Z,8.00
2019-05-07T12:49:22.128Z,10.23
2019-05-07T12:51:56.985Z,6.63
2019-05-07T12:54:44.569Z,7.27
2019-05-07T12:57:13.364Z,7.00
2019-05-07T12:59:42.639Z,6.87
2019-05-07T13:02:38.113Z,7.50
2019-05-07T13:05:02.969Z,6.55
2019-05-07T13:07:47.361Z,5.70
2019-05-07T13:10:16.232Z,7.57
2019-05-07T13:12:44.982Z,7.17
2019-05-07T13:15:23.922Z,6.07
2019-05-07T13:17:44.595Z,4.80
2019-05-07T13:20:14.017Z,4.97
2019-05-07T13:22:42.872Z,5.70
2019-05-07T13:25:12.465Z,4.47
2019-05-07T13:27:42.940Z,4.57
2019-05-07T13:30:12.066Z,5.63
2019-05-07T13:32:44.544Z,5.63
2019-05-07T13:35:12.630Z,5.17
2019-05-07T13:37:47.593Z,5.03
2019-05-07T13:40:34.249Z,8.87
2019-05-07T13:43:27.294Z,7.07
2019-05-07T13:46:02.525Z,5.67
2019-05-07T13:48:31.754Z,5.63
2019-05-07T13:51:01.807Z,6.83
2019-05-07T13:53:32.274Z,5.70
2019-05-07T13:56:02.307Z,5.47
2019-05-07T13:58:32.929Z,6.53
2019-05-07T14:01:27.257Z,4.17
2019-05-07T14:03:56.337Z,3.80
2019-05-07T14:06:42.645Z,4.50
2019-05-07T14:09:24.377Z,3.80
2019-05-07T14:11:53.766Z,5.60
2019-05-07T14:14:22.848Z,5.40
2019-05-07T14:16:53.068Z,4.67
2019-05-07T14:19:22.644Z,3.83
2019-05-07T14:21:52.492Z,5.53
2019-05-07T14:24:22.360Z,4.50
2019-05-07T14:26:52.802Z,6.23
2019-05-07T14:29:24.403Z,4.53
2019-05-07T14:32:03.372Z,5.70
2019-05-07T14:34:35.417Z,5.83
2019-05-07T14:37:09.898Z,4.47
2019-05-07T14:39:38.717Z,5.77
2019-05-07T14:42:09.846Z,6.13
2019-05-07T14:44:48.783Z,6.67
2019-05-07T14:47:19.108Z,4.90
2019-05-07T14:49:48.823Z,8.00
2019-05-07T14:52:29.044Z,5.80
2019-05-07T14:54:48.777Z,5.43
2019-05-07T14:57:17.519Z,7.50
2019-05-07T14:59:46.367Z,7.93
2019-05-07T15:02:15.587Z,7.05
2019-05-07T15:04:44.485Z,5.10
2019-05-07T15:07:13.303Z,6.00
2019-05-07T15:09:42.582Z,6.70
2019-05-07T15:12:14.652Z,8.30
2019-05-07T15:14:42.293Z,6.37
2019-05-07T15:17:22.463Z,8.83
2019-05-07T15:19:52.128Z,6.20
2019-05-07T15:22:49.405Z,7.23
2019-05-07T15:25:35.945Z,6.10
2019-05-07T15:28:04.861Z,8.57
2019-05-07T15:30:42.718Z,4.95
2019-05-07T15:33:12.758Z,6.45
2019-05-07T15:35:42.555Z,6.08
2019-05-07T15:38:11.732Z,5.30
2019-05-07T15:40:42.298Z,5.10
2019-05-07T15:43:12.997Z,6.07
2019-05-07T15:45:42.728Z,4.63
2019-05-07T15:48:12.699Z,5.13
2019-05-07T15:50:42.887Z,6.80
2019-05-07T15:53:17.646Z,6.77
2019-05-07T15:55:46.460Z,6.70
2019-05-07T15:58:15.601Z,5.13
2019-05-07T16:00:45.070Z,5.53
2019-05-07T16:03:19.244Z,5.80
2019-05-07T16:05:48.093Z,5.27
2019-05-07T16:08:18.305Z,7.80
2019-05-07T16:10:47.201Z,5.50
2019-05-07T16:13:22.394Z,5.47
2019-05-07T16:15:52.907Z,6.90
2019-05-07T16:18:26.173Z,6.28
2019-05-07T16:20:55.200Z,9.98
2019-05-07T16:23:24.112Z,5.97
2019-05-07T16:25:53.302Z,7.63
2019-05-07T16:28:22.317Z,7.37
2019-05-07T16:30:52.131Z,6.37
2019-05-07T16:33:21.058Z,8.10
2019-05-07T16:35:49.832Z,6.50
2019-05-07T16:38:18.635Z,6.80
2019-05-07T16:40:47.664Z,6.43
2019-05-07T16:43:16.465Z,10.13
2019-05-07T16:45:45.205Z,6.10
2019-05-07T16:48:14.393Z,8.17
2019-05-07T16:50:43.139Z,6.43
2019-05-07T16:53:20.319Z,8.33
2019-05-07T16:55:43.322Z,7.43
2019-05-07T16:58:23.492Z,6.80
2019-05-07T17:00:56.033Z,6.13
2019-05-07T17:03:31.868Z,5.30
2019-05-07T17:06:01.797Z,6.97
2019-05-07T17:08:36.219Z,7.67
2019-05-07T17:11:05.039Z,7.22
2019-05-07T17:13:33.873Z,6.80
2019-05-07T17:16:03.370Z,6.50
2019-05-07T17:18:32.797Z,7.57
2019-05-07T17:21:02.282Z,7.53
2019-05-07T17:23:43.311Z,7.60
2019-05-07T17:26:01.596Z,9.63
2019-05-07T17:28:31.953Z,5.97
2019-05-07T17:31:03.096Z,5.30
2019-05-07T17:33:32.378Z,6.10
2019-05-07T17:36:04.338Z,6.53
2019-05-07T17:38:33.341Z,6.15
2019-05-07T17:41:10.875Z,7.87
2019-05-07T17:43:33.131Z,4.85
2019-05-07T17:46:02.844Z,9.37
2019-05-07T17:48:32.895Z,6.13
2019-05-07T17:51:23.872Z,6.33
2019-05-07T17:53:59.737Z,7.33
2019-05-07T17:56:24.435Z,6.47
2019-05-07T17:58:53.161Z,8.43
2019-05-07T18:01:27.848Z,6.27
2019-05-07T18:03:56.652Z,8.33
2019-05-07T18:06:25.397Z,5.35
2019-05-07T18:08:54.129Z,7.13
2019-05-07T18:11:24.323Z,7.43
2019-05-07T18:13:53.462Z,7.30
2019-05-07T18:16:28.914Z,5.47
2019-05-07T18:18:58.168Z,9.55
2019-05-07T18:21:27.106Z,7.60
2019-05-07T18:23:56.292Z,7.73
2019-05-07T18:26:30.357Z,8.70
2019-05-07T18:28:55.701Z,11.03
2019-05-07T18:31:45.739Z,9.13
2019-05-07T18:34:14.668Z,5.87
2019-05-07T18:36:43.523Z,7.85
2019-05-07T18:39:12.324Z,7.23
2019-05-07T18:41:41.778Z,7.93
2019-05-07T18:44:13.496Z,6.77
2019-05-07T18:46:41.222Z,7.73
2019-05-07T18:49:12.632Z,8.55
2019-05-07T18:51:42.669Z,8.20
2019-05-07T18:54:20.224Z,7.80
2019-05-07T18:56:42.348Z,9.57
2019-05-07T18:59:11.843Z,7.50
2019-05-07T19:01:42.320Z,7.17
2019-05-07T19:04:12.887Z,9.77
2019-05-07T19:06:42.534Z,7.23
2019-05-07T19:09:11.666Z,8.23
2019-05-07T19:11:42.650Z,8.38
2019-05-07T19:14:13.259Z,6.87
2019-05-07T19:16:43.065Z,7.57
2019-05-07T19:19:12.595Z,8.17
2019-05-07T19:21:42.315Z,6.90
2019-05-07T19:24:11.507Z,8.67
2019-05-07T19:26:42.092Z,7.70
2019-05-07T19:29:12.429Z,10.13
2019-05-07T19:31:41.938Z,8.27
2019-05-07T19:34:12.315Z,7.97
2019-05-07T19:36:42.436Z,7.37
2019-05-07T19:39:12.651Z,10.43
2019-05-07T19:41:42.970Z,8.67
2019-05-07T19:44:12.688Z,9.50
2019-05-07T19:46:42.245Z,11.73
2019-05-07T19:49:11.281Z,8.77
2019-05-07T19:51:39.998Z,10.38
2019-05-07T19:54:08.981Z,12.30
2019-05-07T19:56:38.092Z,8.00
2019-05-07T19:59:07.237Z,8.85
2019-05-07T20:01:44.126Z,9.40
2019-05-07T20:04:13.374Z,11.45
2019-05-07T20:06:42.934Z,9.13
2019-05-07T20:09:15.647Z,9.10
2019-05-07T20:11:47.018Z,8.57
2019-05-07T20:14:16.071Z,7.33
2019-05-07T20:16:44.860Z,9.43
2019-05-07T20:19:13.711Z,9.27
2019-05-07T20:21:42.465Z,9.63
2019-05-07T20:24:12.471Z,9.93
2019-05-07T20:26:43.067Z,11.37
2019-05-07T20:29:12.772Z,9.13
2019-05-07T20:31:42.435Z,11.20
2019-05-07T20:34:13.059Z,9.43
2019-05-07T20:36:42.837Z,9.80
2019-05-07T20:39:12.897Z,7.77
2019-05-07T20:41:42.954Z,9.10
2019-05-07T20:44:12.152Z,10.30
2019-05-07T20:46:42.141Z,10.57
2019-05-07T20:49:13.058Z,10.15
2019-05-07T20:51:42.533Z,8.27
2019-05-07T20:54:19.177Z,11.33
2019-05-07T20:56:54.331Z,13.03
2019-05-07T20:59:23.241Z,9.30
2019-05-07T21:01:52.659Z,10.10
2019-05-07T21:04:22.238Z,11.00
2019-05-07T21:06:52.494Z,11.28
2019-05-07T21:09:22.181Z,8.80
2019-05-07T21:11:51.632Z,11.23
2019-05-07T21:14:22.731Z,13.28
2019-05-07T21:16:51.944Z,16.85
2019-05-07T21:19:22.330Z,11.50
2019-05-07T21:21:51.335Z,18.00
2019-05-07T21:24:22.476Z,14.83
2019-05-07T21:26:52.905Z,11.70
2019-05-07T21:29:21.306Z,16.60
2019-05-07T21:31:52.297Z,19.13
2019-05-07T21:34:22.818Z,21.53
2019-05-07T21:36:52.403Z,14.57
2019-05-07T21:39:22.336Z,17.25
2019-05-07T21:41:51.979Z,13.97
2019-05-07T21:44:22.670Z,11.90
2019-05-07T21:46:52.469Z,13.53
2019-05-07T21:49:22.867Z,14.50
2019-05-07T21:51:52.254Z,12.23
2019-05-07T21:54:56.712Z,14.50
2019-05-07T21:57:33.768Z,13.57
2019-05-07T22:00:33.738Z,13.83
2019-05-07T22:03:05.016Z,15.53
2019-05-07T22:05:33.886Z,14.95
2019-05-07T22:08:02.624Z,11.43
2019-05-07T22:10:32.979Z,14.87
2019-05-07T22:13:03.282Z,14.00
2019-05-07T22:15:32.244Z,12.03
2019-05-07T22:18:02.703Z,14.17
2019-05-07T22:20:32.144Z,16.90
2019-05-07T22:23:02.819Z,14.43
2019-05-07T22:25:32.816Z,14.00
2019-05-07T22:28:04.838Z,12.30
2019-05-07T22:30:43.584Z,11.97
2019-05-07T22:33:18.745Z,13.63
2019-05-07T22:35:47.879Z,14.07
2019-05-07T22:38:16.673Z,14.40
2019-05-07T22:40:45.497Z,16.10
2019-05-07T22:43:14.703Z,14.38
2019-05-07T22:45:43.475Z,14.97
2019-05-07T22:48:12.777Z,14.53
2019-05-07T22:50:42.106Z,15.43
2019-05-07T22:53:12.630Z,14.53
2019-05-07T22:55:41.926Z,12.87
2019-05-07T22:58:21.982Z,12.67
2019-05-07T23:00:58.115Z,15.90
2019-05-07T23:03:26.945Z,14.05
2019-05-07T23:05:57.955Z,12.03
2019-05-07T23:08:26.722Z,14.37
2019-05-07T23:10:55.456Z,13.23
2019-05-07T23:13:24.190Z,14.50
2019-05-07T23:15:53.832Z,13.47
2019-05-07T23:18:22.758Z,14.53
2019-05-07T23:20:52.726Z,13.55
2019-05-07T23:23:21.869Z,13.47
2019-05-07T23:25:52.397Z,12.80
2019-05-07T23:28:22.968Z,14.97
2019-05-07T23:30:52.005Z,14.63
2019-05-07T23:33:22.620Z,15.73
2019-05-07T23:35:52.777Z,14.30
2019-05-07T23:38:22.590Z,11.47
2019-05-07T23:41:01.997Z,13.23
2019-05-07T23:43:30.422Z,14.60
2019-05-07T23:45:59.474Z,14.03
2019-05-07T23:48:28.290Z,13.07
2019-05-07T23:50:57.025Z,12.23
2019-05-07T23:53:25.764Z,14.93
2019-05-07T23:55:54.538Z,13.67
2019-05-07T23:58:23.401Z,13.73
